createdAt,value
2022-08-14T00:00:44.183Z,1015.24
2022-08-14T00:02:44.413Z,1015.25
2022-08-14T00:04:44.973Z,1015.21
2022-08-14T00:06:44.153Z,1015.21
2022-08-14T00:08:45.294Z,1015.19
2022-08-14T00:10:49.864Z,1015.14
2022-08-14T00:12:48.026Z,1015.10
2022-08-14T00:14:44.155Z,1015.10
2022-08-14T00:16:45.124Z,1015.05
2022-08-14T00:19:06.198Z,1015.07
2022-08-14T00:20:44.156Z,1015.03
2022-08-14T00:22:57.848Z,1015.04
2022-08-14T00:24:44.186Z,1015.04
2022-08-14T00:26:44.183Z,1015.04
2022-08-14T00:28:44.195Z,1014.91
2022-08-14T00:30:44.198Z,1014.85
2022-08-14T00:33:00.763Z,1014.80
2022-08-14T00:34:46.723Z,1014.80
2022-08-14T00:36:49.432Z,1014.79
2022-08-14T00:38:44.184Z,1014.76
2022-08-14T00:40:46.343Z,1014.76
2022-08-14T00:42:55.711Z,1014.76
2022-08-14T00:44:44.204Z,1014.72
2022-08-14T00:46:44.198Z,1014.74
2022-08-14T00:48:44.218Z,1014.71
2022-08-14T00:50:44.199Z,1014.71
2022-08-14T00:52:44.303Z,1014.71
2022-08-14T00:54:44.190Z,1014.70
2022-08-14T00:56:44.182Z,1014.73
2022-08-14T00:58:45.242Z,1014.70
2022-08-14T01:00:51.102Z,1014.65
2022-08-14T01:02:44.283Z,1014.65
2022-08-14T01:04:54.077Z,1014.56
2022-08-14T01:06:44.199Z,1014.56
2022-08-14T01:08:52.043Z,1014.41
2022-08-14T01:10:44.291Z,1014.34
2022-08-14T01:12:44.477Z,1014.34
2022-08-14T01:14:44.205Z,1014.25
2022-08-14T01:16:44.203Z,1014.19
2022-08-14T01:18:44.215Z,1014.18
2022-08-14T01:20:44.216Z,1014.18
2022-08-14T01:22:44.420Z,1014.12
2022-08-14T01:24:44.221Z,1014.10
2022-08-14T01:26:50.594Z,1014.11
2022-08-14T01:28:56.615Z,1014.04
2022-08-14T01:30:44.227Z,1014.04
2022-08-14T01:32:44.288Z,1014.09
2022-08-14T01:35:20.775Z,1014.12
2022-08-14T01:36:44.230Z,1014.12
2022-08-14T01:38:44.269Z,1014.10
2022-08-14T01:40:44.238Z,1014.10
2022-08-14T01:42:44.636Z,1014.06
2022-08-14T01:44:44.227Z,1013.99
2022-08-14T01:46:44.367Z,1013.99
2022-08-14T01:48:44.245Z,1013.99
2022-08-14T01:50:44.267Z,1014.04
2022-08-14T01:52:58.542Z,1014.01
2022-08-14T01:55:14.247Z,1014.01
2022-08-14T01:57:14.242Z,1013.99
2022-08-14T01:59:18.305Z,1013.99
2022-08-14T02:01:14.297Z,1013.95
2022-08-14T02:03:14.243Z,1013.94
2022-08-14T02:05:14.323Z,1013.91
2022-08-14T02:07:15.759Z,1013.89
2022-08-14T02:09:19.296Z,1013.89
2022-08-14T02:11:14.355Z,1013.88
2022-08-14T02:13:16.159Z,1013.92
2022-08-14T02:15:15.299Z,1013.85
2022-08-14T02:17:14.247Z,1013.85
2022-08-14T02:19:14.256Z,1013.87
2022-08-14T02:21:14.247Z,1013.85
2022-08-14T02:23:14.329Z,1013.82
2022-08-14T02:28:22.426Z,1013.79
2022-08-14T02:31:28.466Z,1013.76
2022-08-14T02:33:22.828Z,1013.73
2022-08-14T02:35:22.837Z,1013.72
2022-08-14T02:37:22.819Z,1013.72
2022-08-14T02:39:22.847Z,1013.67
2022-08-14T02:41:22.826Z,1013.64
2022-08-14T02:43:22.914Z,1013.57
2022-08-14T02:45:22.859Z,1013.57
2022-08-14T02:47:22.854Z,1013.51
2022-08-14T02:49:25.319Z,1013.47
2022-08-14T02:51:22.838Z,1013.42
2022-08-14T02:53:22.824Z,1013.36
2022-08-14T02:55:22.846Z,1013.36
2022-08-14T02:57:39.712Z,1013.30
2022-08-14T02:59:22.857Z,1013.30
2022-08-14T03:01:24.080Z,1013.22
2022-08-14T03:03:22.826Z,1013.22
2022-08-14T03:05:22.858Z,1013.22
2022-08-14T03:07:22.834Z,1013.20
2022-08-14T03:09:22.824Z,1013.20
2022-08-14T03:11:22.853Z,1013.15
2022-08-14T03:13:22.910Z,1013.13
2022-08-14T03:15:22.958Z,1013.13
2022-08-14T03:17:22.848Z,1013.15
2022-08-14T03:19:22.858Z,1013.17
2022-08-14T03:21:22.910Z,1013.15
2022-08-14T03:23:22.935Z,1013.15
2022-08-14T03:25:22.856Z,1013.10
2022-08-14T03:27:22.982Z,1013.07
2022-08-14T03:29:24.603Z,1013.05
2022-08-14T03:31:26.116Z,1013.00
2022-08-14T03:33:22.886Z,1013.00
2022-08-14T03:35:22.856Z,1012.93
2022-08-14T03:37:38.855Z,1012.92
2022-08-14T03:39:23.865Z,1012.94
2022-08-14T03:41:23.276Z,1012.93
2022-08-14T03:43:22.882Z,1012.93
2022-08-14T03:45:34.125Z,1012.88
2022-08-14T03:47:22.878Z,1012.82
2022-08-14T03:49:28.456Z,1012.82
2022-08-14T03:51:22.866Z,1012.82
2022-08-14T03:53:22.871Z,1012.80
2022-08-14T03:55:22.897Z,1012.75
2022-08-14T03:57:23.807Z,1012.72
2022-08-14T03:59:22.884Z,1012.70
2022-08-14T04:01:22.960Z,1012.70
2022-08-14T04:03:24.352Z,1012.62
2022-08-14T04:05:22.904Z,1012.57
2022-08-14T04:07:22.896Z,1012.60
2022-08-14T04:09:22.887Z,1012.62
2022-08-14T04:11:22.880Z,1012.62
2022-08-14T04:13:23.878Z,1012.60
2022-08-14T04:15:23.479Z,1012.56
2022-08-14T04:17:22.888Z,1012.51
2022-08-14T04:19:22.896Z,1012.51
2022-08-14T04:21:22.982Z,1012.52
2022-08-14T04:23:23.389Z,1012.54
2022-08-14T04:25:22.893Z,1012.55
2022-08-14T04:27:22.912Z,1012.51
2022-08-14T04:29:22.920Z,1012.51
2022-08-14T04:32:56.327Z,1012.51
2022-08-14T04:33:23.106Z,1012.50
2022-08-14T04:35:56.460Z,1012.42
2022-08-14T04:37:53.590Z,1012.44
2022-08-14T04:39:56.489Z,1012.46
2022-08-14T04:41:52.902Z,1012.41
2022-08-14T04:43:52.917Z,1012.41
2022-08-14T04:45:52.900Z,1012.39
2022-08-14T04:47:53.667Z,1012.38
2022-08-14T04:49:57.464Z,1012.41
2022-08-14T04:51:55.837Z,1012.41
2022-08-14T04:53:53.018Z,1012.47
2022-08-14T04:55:52.927Z,1012.49
2022-08-14T04:57:52.926Z,1012.52
2022-08-14T04:59:52.937Z,1012.53
2022-08-14T05:01:56.461Z,1012.53
2022-08-14T05:03:52.931Z,1012.50
2022-08-14T05:05:54.643Z,1012.47
2022-08-14T05:08:01.303Z,1012.43
2022-08-14T05:09:52.936Z,1012.43
2022-08-14T05:11:52.923Z,1012.43
2022-08-14T05:14:45.633Z,1012.45
2022-08-14T05:15:54.212Z,1012.41
2022-08-14T05:17:53.937Z,1012.42
2022-08-14T05:21:04.878Z,1012.42
2022-08-14T05:21:59.972Z,1012.46
2022-08-14T05:23:53.737Z,1012.43
2022-08-14T05:25:52.937Z,1012.42
2022-08-14T05:27:52.957Z,1012.46
2022-08-14T05:29:52.990Z,1012.46
2022-08-14T05:31:55.919Z,1012.48
2022-08-14T05:33:54.894Z,1012.53
2022-08-14T05:35:52.957Z,1012.54
2022-08-14T05:37:52.938Z,1012.56
2022-08-14T05:39:53.123Z,1012.56
2022-08-14T05:41:54.292Z,1012.55
2022-08-14T05:43:52.952Z,1012.54
2022-08-14T05:45:52.933Z,1012.53
2022-08-14T05:47:52.947Z,1012.53
2022-08-14T05:49:52.944Z,1012.51
2022-08-14T05:51:53.002Z,1012.51
2022-08-14T05:54:00.353Z,1012.49
2022-08-14T05:55:52.962Z,1012.51
2022-08-14T05:57:52.964Z,1012.51
2022-08-14T05:59:53.088Z,1012.56
2022-08-14T06:01:53.140Z,1012.57
2022-08-14T06:03:54.492Z,1012.60
2022-08-14T06:05:52.992Z,1012.58
2022-08-14T06:07:53.025Z,1012.58
2022-08-14T06:09:52.974Z,1012.59
2022-08-14T06:11:52.965Z,1012.65
2022-08-14T06:13:52.960Z,1012.61
2022-08-14T06:15:52.986Z,1012.58
2022-08-14T06:17:58.580Z,1012.58
2022-08-14T06:19:52.990Z,1012.52
2022-08-14T06:21:58.881Z,1012.47
2022-08-14T06:23:52.967Z,1012.52
2022-08-14T06:25:53.529Z,1012.52
2022-08-14T06:27:52.978Z,1012.47
2022-08-14T06:29:52.993Z,1012.47
2022-08-14T06:32:00.058Z,1012.47
2022-08-14T06:35:03.836Z,1012.37
2022-08-14T06:35:53.002Z,1012.37
2022-08-14T06:37:52.969Z,1012.35
2022-08-14T06:40:26.118Z,1012.39
2022-08-14T06:42:33.005Z,1012.34
2022-08-14T06:44:23.004Z,1012.34
2022-08-14T06:46:32.382Z,1012.34
2022-08-14T06:48:22.996Z,1012.33
2022-08-14T06:50:27.692Z,1012.28
2022-08-14T06:52:22.989Z,1012.20
2022-08-14T06:54:22.986Z,1012.20
2022-08-14T06:56:22.998Z,1012.15
2022-08-14T06:58:28.948Z,1012.12
2022-08-14T07:00:26.896Z,1012.09
2022-08-14T07:02:23.001Z,1012.09
2022-08-14T07:04:24.319Z,1012.09
2022-08-14T07:06:46.568Z,1012.13
2022-08-14T07:08:23.009Z,1012.12
2022-08-14T07:10:25.534Z,1012.08
2022-08-14T07:12:54.401Z,1012.08
2022-08-14T07:14:23.011Z,1012.08
2022-08-14T07:16:23.012Z,1011.97
2022-08-14T07:18:23.020Z,1011.94
2022-08-14T07:20:31.290Z,1011.86
2022-08-14T07:22:23.047Z,1011.86
2022-08-14T07:24:31.121Z,1011.81
2022-08-14T07:26:23.087Z,1011.81
2022-08-14T07:28:23.013Z,1011.82
2022-08-14T07:30:34.536Z,1011.84
2022-08-14T07:32:33.808Z,1011.84
2022-08-14T07:34:26.478Z,1011.85
2022-08-14T07:36:30.335Z,1011.82
2022-08-14T07:38:23.034Z,1011.80
2022-08-14T07:40:27.499Z,1011.76
2022-08-14T07:42:23.035Z,1011.76
2022-08-14T07:44:32.456Z,1011.73
2022-08-14T07:46:28.228Z,1011.68
2022-08-14T07:48:25.008Z,1011.72
2022-08-14T07:50:23.079Z,1011.72
2022-08-14T07:52:30.482Z,1011.83
2022-08-14T07:54:29.993Z,1011.83
2022-08-14T07:56:46.941Z,1011.85
2022-08-14T07:58:33.962Z,1011.87
2022-08-14T08:00:30.956Z,1011.87
2022-08-14T08:02:23.054Z,1011.85
2022-08-14T08:04:24.321Z,1011.86
2022-08-14T08:06:23.050Z,1011.80
2022-08-14T08:08:26.981Z,1011.82
2022-08-14T08:10:46.148Z,1011.82
2022-08-14T08:12:27.985Z,1011.84
2022-08-14T08:14:23.068Z,1011.83
2022-08-14T08:16:23.071Z,1011.77
2022-08-14T08:18:29.281Z,1011.74
2022-08-14T08:20:23.065Z,1011.74
2022-08-14T08:22:23.180Z,1011.73
2022-08-14T08:24:23.086Z,1011.76
2022-08-14T08:26:23.061Z,1011.81
2022-08-14T08:28:26.582Z,1011.81
2022-08-14T08:30:23.078Z,1011.88
2022-08-14T08:32:23.084Z,1011.88
2022-08-14T08:34:23.796Z,1011.88
2022-08-14T08:36:23.081Z,1011.99
2022-08-14T08:39:14.587Z,1011.99
2022-08-14T08:40:23.149Z,1011.97
2022-08-14T08:42:31.143Z,1012.02
2022-08-14T08:44:31.938Z,1012.00
2022-08-14T08:46:53.148Z,1011.96
2022-08-14T08:50:53.090Z,1011.91
2022-08-14T08:52:53.236Z,1011.92
2022-08-14T08:54:53.091Z,1011.90
2022-08-14T08:56:53.116Z,1011.83
2022-08-14T08:58:53.185Z,1011.80
2022-08-14T09:00:54.273Z,1011.80
2022-08-14T09:02:53.101Z,1011.80
2022-08-14T09:04:53.941Z,1011.79
2022-08-14T09:07:09.309Z,1011.68
2022-08-14T09:08:53.134Z,1011.66
2022-08-14T09:10:56.329Z,1011.66
2022-08-14T09:12:53.160Z,1011.71
2022-08-14T09:14:53.124Z,1011.71
2022-08-14T09:16:53.125Z,1011.69
2022-08-14T09:18:53.869Z,1011.67
2022-08-14T09:20:53.117Z,1011.67
2022-08-14T09:22:53.549Z,1011.71
2022-08-14T09:24:53.139Z,1011.65
2022-08-14T09:26:53.123Z,1011.67
2022-08-14T09:28:53.155Z,1011.67
2022-08-14T09:30:53.116Z,1011.60
2022-08-14T09:32:59.498Z,1011.58
2022-08-14T09:34:58.390Z,1011.54
2022-08-14T09:36:53.257Z,1011.55
2022-08-14T09:38:53.399Z,1011.55
2022-08-14T09:40:53.133Z,1011.57
2022-08-14T09:42:53.465Z,1011.49
2022-08-14T09:46:53.274Z,1011.50
2022-08-14T09:50:53.302Z,1011.45
2022-08-14T09:55:03.012Z,1011.37
2022-08-14T09:57:01.727Z,1011.37
2022-08-14T09:59:01.743Z,1011.19
2022-08-14T10:01:01.750Z,1011.15
2022-08-14T10:03:01.890Z,1011.09
2022-08-14T10:05:01.765Z,1011.17
2022-08-14T10:07:01.737Z,1011.17
2022-08-14T10:09:01.753Z,1011.18
2022-08-14T10:11:02.442Z,1011.19
2022-08-14T10:13:01.786Z,1011.17
2022-08-14T10:15:01.747Z,1011.13
2022-08-14T10:17:01.740Z,1011.13
2022-08-14T10:19:01.763Z,1011.22
2022-08-14T10:21:01.842Z,1011.18
2022-08-14T10:23:14.444Z,1011.18
2022-08-14T10:25:01.745Z,1011.18
2022-08-14T10:27:01.760Z,1011.16
2022-08-14T10:29:18.414Z,1011.15
2022-08-14T10:31:01.783Z,1011.07
2022-08-14T10:33:01.767Z,1011.08
2022-08-14T10:35:01.762Z,1011.08
2022-08-14T10:37:02.206Z,1011.08
2022-08-14T10:39:01.777Z,1011.06
2022-08-14T10:41:02.091Z,1010.93
2022-08-14T10:43:01.832Z,1010.87
2022-08-14T10:45:01.798Z,1010.87
2022-08-14T10:47:40.253Z,1010.89
2022-08-14T10:49:01.841Z,1010.83
2022-08-14T10:51:01.787Z,1010.73
2022-08-14T10:53:02.300Z,1010.73
2022-08-14T10:55:01.811Z,1010.65
2022-08-14T10:57:01.822Z,1010.65
2022-08-14T10:59:01.790Z,1010.49
2022-08-14T11:01:01.824Z,1010.61
2022-08-14T11:03:02.081Z,1010.61
2022-08-14T11:05:04.945Z,1010.53
2022-08-14T11:07:01.790Z,1010.50
2022-08-14T11:09:01.930Z,1010.51
2022-08-14T11:11:01.834Z,1010.43
2022-08-14T11:13:01.809Z,1010.43
2022-08-14T11:15:02.852Z,1010.41
2022-08-14T11:17:01.794Z,1010.41
2022-08-14T11:19:01.870Z,1010.22
2022-08-14T11:21:02.110Z,1010.14
2022-08-14T11:23:01.861Z,1010.14
2022-08-14T11:25:01.850Z,1010.19
2022-08-14T11:27:01.823Z,1010.13
2022-08-14T11:29:36.047Z,1010.15
2022-08-14T11:31:35.586Z,1010.15
2022-08-14T11:33:32.452Z,1010.23
2022-08-14T11:35:44.108Z,1010.16
2022-08-14T11:37:40.342Z,1010.08
2022-08-14T11:39:34.352Z,1010.08
2022-08-14T11:41:31.881Z,1010.08
2022-08-14T11:43:31.882Z,1010.13
2022-08-14T11:45:31.944Z,1010.16
2022-08-14T11:47:35.045Z,1010.17
2022-08-14T11:49:34.093Z,1010.11
2022-08-14T11:51:35.971Z,1010.11
2022-08-14T11:53:31.879Z,1010.10
2022-08-14T11:55:31.871Z,1010.03
2022-08-14T11:57:31.918Z,1010.03
2022-08-14T11:59:33.093Z,1010.03
2022-08-14T12:01:31.897Z,1009.94
2022-08-14T12:03:46.793Z,1009.83
2022-08-14T12:05:31.929Z,1009.96
2022-08-14T12:07:32.158Z,1010.01
2022-08-14T12:09:31.998Z,1010.01
2022-08-14T12:11:31.883Z,1010.10
2022-08-14T12:13:31.982Z,1010.13
2022-08-14T12:15:31.986Z,1010.06
2022-08-14T12:17:32.015Z,1009.95
2022-08-14T12:19:33.813Z,1009.95
2022-08-14T12:21:32.360Z,1010.03
2022-08-14T12:23:31.988Z,1010.05
2022-08-14T12:25:34.540Z,1009.94
2022-08-14T12:27:31.939Z,1009.94
2022-08-14T12:29:32.175Z,1009.97
2022-08-14T12:31:36.441Z,1009.96
2022-08-14T12:33:33.200Z,1009.91
2022-08-14T12:35:31.898Z,1009.91
2022-08-14T12:37:31.927Z,1009.91
2022-08-14T12:39:39.515Z,1009.91
2022-08-14T12:41:37.262Z,1009.78
2022-08-14T12:43:31.993Z,1009.68
2022-08-14T12:45:31.976Z,1009.68
2022-08-14T12:47:31.989Z,1009.68
2022-08-14T12:49:32.012Z,1009.54
2022-08-14T12:51:31.925Z,1009.56
2022-08-14T12:53:31.919Z,1009.57
2022-08-14T12:55:32.343Z,1009.57
2022-08-14T12:57:31.971Z,1009.50
2022-08-14T12:59:32.022Z,1009.50
2022-08-14T13:02:00.448Z,1009.44
2022-08-14T13:03:32.035Z,1009.37
2022-08-14T13:05:32.056Z,1009.37
2022-08-14T13:07:33.186Z,1009.41
2022-08-14T13:09:36.403Z,1009.38
2022-08-14T13:11:32.267Z,1009.31
2022-08-14T13:13:32.091Z,1009.29
2022-08-14T13:15:32.014Z,1009.29
2022-08-14T13:17:37.975Z,1009.26
2022-08-14T13:19:31.968Z,1009.26
2022-08-14T13:22:05.047Z,1009.20
2022-08-14T13:23:32.414Z,1009.20
2022-08-14T13:25:31.961Z,1009.17
2022-08-14T13:27:31.938Z,1009.17
2022-08-14T13:29:32.063Z,1009.22
2022-08-14T13:31:32.065Z,1009.17
2022-08-14T13:33:32.069Z,1009.17
2022-08-14T13:35:32.085Z,1009.15
2022-08-14T13:38:02.073Z,1009.05
2022-08-14T13:40:02.190Z,1009.07
2022-08-14T13:42:02.022Z,1009.05
2022-08-14T13:44:02.067Z,1009.04
2022-08-14T13:46:02.392Z,1008.94
2022-08-14T13:48:03.140Z,1008.94
2022-08-14T13:50:02.196Z,1008.91
2022-08-14T13:52:02.134Z,1008.84
2022-08-14T13:54:10.298Z,1008.83
2022-08-14T13:56:02.237Z,1008.83
2022-08-14T13:58:04.283Z,1008.81
2022-08-14T14:00:02.092Z,1008.81
2022-08-14T14:02:02.093Z,1008.69
2022-08-14T14:04:01.986Z,1008.70
2022-08-14T14:06:02.103Z,1008.70
2022-08-14T14:08:02.140Z,1008.66
2022-08-14T14:10:06.167Z,1008.54
2022-08-14T14:12:02.060Z,1008.64
2022-08-14T14:14:02.084Z,1008.62
2022-08-14T14:16:01.987Z,1008.62
2022-08-14T14:18:02.070Z,1008.29
2022-08-14T14:20:04.418Z,1008.60
2022-08-14T14:22:02.076Z,1008.54
2022-08-14T14:24:02.013Z,1008.54
2022-08-14T14:26:02.032Z,1008.48
2022-08-14T14:28:02.086Z,1008.48
2022-08-14T14:30:03.472Z,1008.47
2022-08-14T14:32:02.081Z,1008.42
2022-08-14T14:34:07.623Z,1008.42
2022-08-14T14:36:02.078Z,1008.29
2022-08-14T14:38:03.515Z,1008.39
2022-08-14T14:40:54.329Z,1008.39
2022-08-14T14:42:04.203Z,1008.39
2022-08-14T14:44:02.122Z,1008.39
2022-08-14T14:46:03.984Z,1008.31
2022-08-14T14:48:02.050Z,1008.27
2022-08-14T14:50:02.041Z,1008.28
2022-08-14T14:52:02.019Z,1008.25
2022-08-14T14:54:02.037Z,1008.25
2022-08-14T14:56:50.997Z,1008.25
2022-08-14T14:58:02.034Z,1008.24
2022-08-14T15:00:02.077Z,1008.17
2022-08-14T15:02:02.063Z,1008.17
2022-08-14T15:04:04.049Z,1008.11
2022-08-14T15:06:02.058Z,1008.06
2022-08-14T15:08:02.020Z,1008.13
2022-08-14T15:10:02.065Z,1008.03
2022-08-14T15:12:02.042Z,1008.03
2022-08-14T15:14:02.038Z,1008.05
2022-08-14T15:16:02.033Z,1008.06
2022-08-14T15:18:02.065Z,1008.04
2022-08-14T15:20:02.058Z,1008.04
2022-08-14T15:22:02.024Z,1008.04
2022-08-14T15:24:02.091Z,1008.01
2022-08-14T15:26:02.183Z,1008.02
2022-08-14T15:28:02.033Z,1008.02
2022-08-14T15:30:02.063Z,1008.02
2022-08-14T15:32:02.054Z,1007.99
2022-08-14T15:34:45.551Z,1007.90
2022-08-14T15:36:02.126Z,1007.92
2022-08-14T15:38:02.073Z,1007.89
2022-08-14T15:40:02.242Z,1007.89
2022-08-14T15:42:02.064Z,1007.89
2022-08-14T15:44:02.067Z,1007.90
2022-08-14T15:46:43.191Z,1007.92
2022-08-14T15:48:32.075Z,1007.94
2022-08-14T15:50:32.165Z,1007.94
2022-08-14T15:52:35.229Z,1007.93
2022-08-14T15:54:32.096Z,1007.92
2022-08-14T15:56:42.296Z,1007.94
2022-08-14T15:58:32.118Z,1007.94
2022-08-14T16:00:43.987Z,1007.95
2022-08-14T16:02:32.192Z,1007.95
2022-08-14T16:04:32.100Z,1007.87
2022-08-14T16:06:32.159Z,1007.88
2022-08-14T16:08:32.110Z,1007.88
2022-08-14T16:10:32.110Z,1007.88
2022-08-14T16:12:40.292Z,1007.84
2022-08-14T16:14:32.187Z,1007.81
2022-08-14T16:16:34.891Z,1007.83
2022-08-14T16:18:32.139Z,1007.83
2022-08-14T16:20:40.893Z,1007.85
2022-08-14T16:22:59.351Z,1007.90
2022-08-14T16:24:32.119Z,1007.89
2022-08-14T16:26:33.296Z,1007.89
2022-08-14T16:28:32.111Z,1007.86
2022-08-14T16:30:32.114Z,1007.85
2022-08-14T16:32:36.092Z,1007.83
2022-08-14T16:34:47.072Z,1007.77
2022-08-14T16:36:32.136Z,1007.77
2022-08-14T16:38:45.804Z,1007.78
2022-08-14T16:40:32.246Z,1007.79
2022-08-14T16:43:01.236Z,1007.79
2022-08-14T16:44:33.872Z,1007.74
2022-08-14T16:46:32.647Z,1007.74
2022-08-14T16:48:56.894Z,1007.70
2022-08-14T16:50:40.692Z,1007.74
2022-08-14T16:52:44.373Z,1007.72
2022-08-14T16:54:35.459Z,1007.70
2022-08-14T16:58:32.287Z,1007.61
2022-08-14T17:02:40.766Z,1007.57
2022-08-14T17:04:41.197Z,1007.58
2022-08-14T17:06:43.091Z,1007.62
2022-08-14T17:08:46.461Z,1007.62
2022-08-14T17:10:40.670Z,1007.61
2022-08-14T17:12:40.653Z,1007.65
2022-08-14T17:14:40.671Z,1007.65
2022-08-14T17:16:40.649Z,1007.64
2022-08-14T17:18:40.663Z,1007.64
2022-08-14T17:21:01.963Z,1007.63
2022-08-14T17:22:40.683Z,1007.63
2022-08-14T17:24:56.260Z,1007.60
2022-08-14T17:26:40.682Z,1007.60
2022-08-14T17:28:52.099Z,1007.58
2022-08-14T17:30:40.680Z,1007.63
2022-08-14T17:32:55.713Z,1007.59
2022-08-14T17:34:40.760Z,1007.59
2022-08-14T17:36:40.649Z,1007.59
2022-08-14T17:38:40.665Z,1007.55
2022-08-14T17:40:40.711Z,1007.55
2022-08-14T17:42:40.699Z,1007.56
2022-08-14T17:44:45.578Z,1007.58
2022-08-14T17:46:43.549Z,1007.58
2022-08-14T17:49:15.517Z,1007.56
2022-08-14T17:50:59.417Z,1007.59
2022-08-14T17:52:42.041Z,1007.57
2022-08-14T17:54:44.608Z,1007.54
2022-08-14T17:56:40.742Z,1007.54
2022-08-14T17:58:42.044Z,1007.57
2022-08-14T18:00:40.713Z,1007.62
2022-08-14T18:02:40.740Z,1007.62
2022-08-14T18:04:40.800Z,1007.62
2022-08-14T18:06:57.898Z,1007.61
2022-08-14T18:08:41.974Z,1007.59
2022-08-14T18:10:55.495Z,1007.61
2022-08-14T18:12:41.116Z,1007.59
2022-08-14T18:14:48.943Z,1007.59
2022-08-14T18:16:41.709Z,1007.57
2022-08-14T18:18:40.796Z,1007.56
2022-08-14T18:21:39.879Z,1007.59
2022-08-14T18:22:41.370Z,1007.59
2022-08-14T18:24:40.734Z,1007.59
2022-08-14T18:26:41.072Z,1007.58
2022-08-14T18:29:14.909Z,1007.61
2022-08-14T18:31:10.755Z,1007.60
2022-08-14T18:33:10.778Z,1007.60
2022-08-14T18:35:11.049Z,1007.59
2022-08-14T18:37:17.219Z,1007.61
2022-08-14T18:39:10.907Z,1007.67
2022-08-14T18:41:10.822Z,1007.70
2022-08-14T18:43:10.842Z,1007.70
2022-08-14T18:45:12.598Z,1007.70
2022-08-14T18:47:15.047Z,1007.70
2022-08-14T18:49:10.831Z,1007.67
2022-08-14T18:51:10.795Z,1007.71
2022-08-14T18:53:11.248Z,1007.71
2022-08-14T18:55:12.048Z,1007.70
2022-08-14T18:57:10.870Z,1007.70
2022-08-14T18:59:10.785Z,1007.71
2022-08-14T19:01:10.783Z,1007.71
2022-08-14T19:03:10.818Z,1007.75
2022-08-14T19:05:10.790Z,1007.76
2022-08-14T19:07:10.830Z,1007.81
2022-08-14T19:09:10.873Z,1007.80
2022-08-14T19:11:10.751Z,1007.80
2022-08-14T19:13:12.250Z,1007.80
2022-08-14T19:15:10.810Z,1007.86
2022-08-14T19:17:10.864Z,1007.85
2022-08-14T19:19:10.825Z,1007.87
2022-08-14T19:21:13.146Z,1007.87
2022-08-14T19:23:10.824Z,1007.92
2022-08-14T19:25:10.866Z,1007.92
2022-08-14T19:27:10.779Z,1007.95
2022-08-14T19:29:10.784Z,1007.95
2022-08-14T19:31:10.927Z,1007.94
2022-08-14T19:33:10.789Z,1007.94
2022-08-14T19:35:17.061Z,1007.90
2022-08-14T19:37:10.762Z,1007.95
2022-08-14T19:39:10.881Z,1007.95
2022-08-14T19:41:10.868Z,1007.94
2022-08-14T19:43:10.871Z,1007.92
2022-08-14T19:45:10.808Z,1007.91
2022-08-14T19:47:11.519Z,1007.92
2022-08-14T19:49:10.851Z,1007.92
2022-08-14T19:51:10.817Z,1007.95
2022-08-14T19:53:11.813Z,1007.96
2022-08-14T19:55:10.982Z,1007.95
2022-08-14T19:57:10.923Z,1007.98
2022-08-14T19:59:10.825Z,1007.98
2022-08-14T20:01:10.828Z,1007.98
2022-08-14T20:03:14.232Z,1007.97
2022-08-14T20:05:12.411Z,1007.97
2022-08-14T20:07:11.481Z,1007.97
2022-08-14T20:11:03.834Z,1007.93
2022-08-14T20:11:20.746Z,1007.94
2022-08-14T20:13:10.942Z,1007.94
2022-08-14T20:15:10.824Z,1007.94
2022-08-14T20:17:10.914Z,1007.94
2022-08-14T20:19:10.863Z,1007.94
2022-08-14T20:21:10.909Z,1007.91
2022-08-14T20:23:11.881Z,1007.88
2022-08-14T20:25:10.924Z,1007.85
2022-08-14T20:27:10.901Z,1007.85
2022-08-14T20:29:10.931Z,1007.86
2022-08-14T20:31:10.928Z,1007.87
2022-08-14T20:33:47.931Z,1007.88
2022-08-14T20:35:41.827Z,1007.85
2022-08-14T20:37:40.851Z,1007.87
2022-08-14T20:39:43.663Z,1007.87
2022-08-14T20:41:40.877Z,1007.87
2022-08-14T20:43:40.955Z,1007.80
2022-08-14T20:45:40.926Z,1007.80
2022-08-14T20:47:58.391Z,1007.83
2022-08-14T20:49:40.900Z,1007.83
2022-08-14T20:51:43.529Z,1007.81
2022-08-14T20:53:42.145Z,1007.78
2022-08-14T20:55:41.711Z,1007.79
2022-08-14T20:57:43.582Z,1007.76
2022-08-14T20:59:43.469Z,1007.76
2022-08-14T21:01:40.831Z,1007.75
2022-08-14T21:03:56.452Z,1007.75
2022-08-14T21:05:40.874Z,1007.72
2022-08-14T21:07:40.853Z,1007.72
2022-08-14T21:10:04.529Z,1007.75
2022-08-14T21:11:40.928Z,1007.74
2022-08-14T21:14:19.845Z,1007.77
2022-08-14T21:15:40.940Z,1007.85
2022-08-14T21:17:43.060Z,1007.85
2022-08-14T21:19:40.901Z,1007.91
2022-08-14T21:21:42.257Z,1007.98
2022-08-14T21:23:54.194Z,1007.99
2022-08-14T21:25:42.469Z,1007.99
2022-08-14T21:27:40.913Z,1007.99
2022-08-14T21:29:40.966Z,1008.08
2022-08-14T21:31:40.968Z,1008.02
2022-08-14T21:33:42.895Z,1007.97
2022-08-14T21:35:41.809Z,1007.97
2022-08-14T21:37:40.911Z,1007.96
2022-08-14T21:39:40.979Z,1007.97
2022-08-14T21:41:42.506Z,1007.98
2022-08-14T21:43:40.948Z,1007.95
2022-08-14T21:45:40.952Z,1007.95
2022-08-14T21:47:43.416Z,1007.99
2022-08-14T21:49:43.198Z,1008.13
2022-08-14T21:51:55.973Z,1008.14
2022-08-14T21:53:58.304Z,1008.22
2022-08-14T21:55:40.910Z,1008.22
2022-08-14T21:58:46.164Z,1008.17
2022-08-14T21:59:40.975Z,1008.13
2022-08-14T22:02:00.097Z,1008.15
2022-08-14T22:03:40.927Z,1008.15
2022-08-14T22:05:41.010Z,1008.22
2022-08-14T22:07:43.668Z,1008.22
2022-08-14T22:09:42.988Z,1008.23
2022-08-14T22:11:40.955Z,1008.23
2022-08-14T22:13:40.986Z,1008.23
2022-08-14T22:15:43.926Z,1008.22
2022-08-14T22:17:44.256Z,1008.24
2022-08-14T22:19:47.499Z,1008.30
2022-08-14T22:21:43.994Z,1008.30
2022-08-14T22:23:41.030Z,1008.30
2022-08-14T22:25:41.473Z,1008.32
2022-08-14T22:27:56.208Z,1008.32
2022-08-14T22:29:40.992Z,1008.31
2022-08-14T22:31:40.897Z,1008.31
2022-08-14T22:33:43.061Z,1008.27
2022-08-14T22:36:10.908Z,1008.28
2022-08-14T22:38:34.634Z,1008.27
2022-08-14T22:40:51.866Z,1008.31
2022-08-14T22:42:20.936Z,1008.31
2022-08-14T22:44:11.067Z,1008.34
2022-08-14T22:46:15.002Z,1008.34
2022-08-14T22:48:11.300Z,1008.34
2022-08-14T22:50:31.425Z,1008.36
2022-08-14T22:52:32.809Z,1008.36
2022-08-14T22:54:51.273Z,1008.38
2022-08-14T22:56:20.389Z,1008.37
2022-08-14T22:58:10.922Z,1008.42
2022-08-14T23:00:10.917Z,1008.39
2022-08-14T23:02:11.582Z,1008.39
2022-08-14T23:04:10.946Z,1008.38
2022-08-14T23:07:04.440Z,1008.36
2022-08-14T23:08:59.491Z,1008.36
2022-08-14T23:10:31.850Z,1008.36
2022-08-14T23:12:25.774Z,1008.38
2022-08-14T23:14:12.111Z,1008.37
2022-08-14T23:16:10.938Z,1008.35
2022-08-14T23:18:13.185Z,1008.37
2022-08-14T23:20:19.320Z,1008.37
2022-08-14T23:22:10.941Z,1008.32
2022-08-14T23:24:13.689Z,1008.30
2022-08-14T23:26:48.125Z,1008.32
2022-08-14T23:28:33.519Z,1008.32
2022-08-14T23:30:11.024Z,1008.32
2022-08-14T23:32:18.751Z,1008.31
2022-08-14T23:34:10.960Z,1008.30
2022-08-14T23:36:32.336Z,1008.31
2022-08-14T23:38:29.918Z,1008.31
2022-08-14T23:40:26.327Z,1008.27
2022-08-14T23:42:10.966Z,1008.25
2022-08-14T23:44:11.053Z,1008.28
2022-08-14T23:46:13.001Z,1008.29
2022-08-14T23:48:12.448Z,1008.29
2022-08-14T23:50:34.220Z,1008.32
2022-08-14T23:52:57.402Z,1008.26
2022-08-14T23:54:49.254Z,1008.24
2022-08-14T23:56:12.025Z,1008.17
2022-08-14T23:58:29.885Z,1008.17
